Time;durP1;ratioP1;P1;durP2;ratioP2;P2;SDS_P1;SDS_P2;PMS_P1;PMS_P2;Temp;Humidity;BMP_temperature;BMP_pressure;BME280_temperature;BME280_humidity;BME280_pressure;Samples;Min_cycle;Max_cycle;Signal;HPM_P1;HPM_P2
2023/02/17 00:00:54;;;;;;;15.47;9.83;;;;;;;5.53;100.00;101249.56;4996418;28;20212;-74
2023/02/17 00:03:20;;;;;;;17.77;9.80;;;;;;;5.50;100.00;101250.41;5001902;28;20317;-74
2023/02/17 00:05:47;;;;;;;15.40;9.83;;;;;;;5.52;100.00;101249.53;4995580;28;20654;-74
2023/02/17 00:08:13;;;;;;;18.97;10.57;;;;;;;5.49;100.00;101247.81;5001477;28;20307;-74
2023/02/17 00:10:39;;;;;;;16.47;10.97;;;;;;;5.50;100.00;101252.13;4998095;28;20205;-74
2023/02/17 00:13:06;;;;;;;16.97;10.07;;;;;;;5.57;100.00;101242.66;4992678;28;20224;-73
2023/02/17 00:15:34;;;;;;;18.50;10.83;;;;;;;5.60;100.00;101234.94;4996150;28;20209;-71
2023/02/17 00:18:00;;;;;;;14.13;9.50;;;;;;;5.58;100.00;101239.22;4994298;28;20228;-75
2023/02/17 00:20:28;;;;;;;21.03;10.43;;;;;;;5.65;100.00;101235.81;4999763;28;20453;-74
2023/02/17 00:22:54;;;;;;;18.37;10.40;;;;;;;5.67;100.00;101236.69;4997957;28;20221;-74
2023/02/17 00:25:21;;;;;;;16.13;10.13;;;;;;;5.67;100.00;101239.25;4998953;28;20650;-74
2023/02/17 00:27:47;;;;;;;18.40;10.90;;;;;;;5.62;100.00;101235.78;4997038;28;20193;-75
2023/02/17 00:30:14;;;;;;;18.57;10.77;;;;;;;5.59;100.00;101238.34;4997416;28;20198;-73
2023/02/17 00:32:42;;;;;;;20.20;11.30;;;;;;;5.56;100.00;101235.75;5035546;23;20250;-74
2023/02/17 00:35:08;;;;;;;19.43;10.20;;;;;;;5.56;100.00;101239.22;5037271;28;20208;-74
2023/02/17 00:37:35;;;;;;;18.43;10.83;;;;;;;5.57;100.00;101233.16;5042480;28;20219;-75
2023/02/17 00:40:01;;;;;;;20.03;11.13;;;;;;;5.58;100.00;101237.50;5024188;28;20245;-73
2023/02/17 00:42:28;;;;;;;17.83;10.37;;;;;;;5.62;100.00;101246.13;5020160;28;20230;-74
2023/02/17 00:44:58;;;;;;;16.67;11.07;;;;;;;5.62;100.00;101246.13;5015494;28;20199;-73
2023/02/17 00:47:24;;;;;;;18.77;11.23;;;;;;;5.64;100.00;101236.66;5024279;28;20598;-74
2023/02/17 00:49:52;;;;;;;18.77;11.57;;;;;;;5.74;100.00;101240.16;5022049;28;20572;-74
2023/02/17 00:52:19;;;;;;;16.83;10.67;;;;;;;5.73;100.00;101238.41;5033755;28;20513;-74
2023/02/17 00:54:45;;;;;;;21.67;11.83;;;;;;;5.69;100.00;101237.53;5021178;28;20204;-74
2023/02/17 00:57:11;;;;;;;15.73;11.13;;;;;;;5.77;100.00;101237.56;5023328;28;20569;-74
2023/02/17 00:59:38;;;;;;;18.40;11.37;;;;;;;5.74;100.00;101224.63;5036314;28;20200;-74
2023/02/17 01:02:07;;;;;;;17.33;10.53;;;;;;;5.67;100.00;101218.56;5019420;28;20239;-74
2023/02/17 01:04:35;;;;;;;18.20;11.30;;;;;;;5.67;100.00;101214.25;5022822;28;20203;-74
2023/02/17 01:07:05;;;;;;;17.90;10.47;;;;;;;5.62;100.00;101220.28;5020679;28;20195;-74
2023/02/17 01:09:31;;;;;;;16.73;11.20;;;;;;;5.64;100.00;101210.78;5022926;28;20203;-75
2023/02/17 01:11:58;;;;;;;17.43;10.90;;;;;;;5.60;100.00;101209.06;5038514;28;20278;-74
2023/02/17 01:14:24;;;;;;;15.93;10.47;;;;;;;5.61;100.00;101210.75;5019147;28;20196;-74
2023/02/17 01:16:54;;;;;;;18.00;10.90;;;;;;;5.63;100.00;101220.28;5020661;28;20211;-74
2023/02/17 01:19:20;;;;;;;20.70;11.70;;;;;;;5.65;100.00;101222.88;5038341;28;20203;-74
2023/02/17 01:21:47;;;;;;;19.53;11.20;;;;;;;5.59;100.00;101215.94;5021413;28;20225;-74
2023/02/17 01:24:17;;;;;;;19.03;11.13;;;;;;;5.54;100.00;101215.06;5017810;28;20755;-74
2023/02/17 01:26:44;;;;;;;20.33;11.77;;;;;;;5.49;100.00;101204.69;5017790;28;20222;-73
2023/02/17 01:29:11;;;;;;;21.67;11.93;;;;;;;5.46;100.00;101203.81;5035182;28;20595;-74
2023/02/17 01:31:39;;;;;;;17.57;11.10;;;;;;;5.45;100.00;101196.91;5017437;28;20227;-74
2023/02/17 01:34:06;;;;;;;18.53;10.93;;;;;;;5.44;100.00;101183.13;5018823;28;20202;-75
2023/02/17 01:36:37;;;;;;;18.50;11.17;;;;;;;5.47;100.00;101182.25;5019846;28;20223;-74
2023/02/17 01:39:04;;;;;;;19.30;11.63;;;;;;;5.49;100.00;101180.56;5019631;28;20281;-73
2023/02/17 01:41:32;;;;;;;18.53;10.57;;;;;;;5.48;100.00;101181.41;5020202;28;20229;-74
2023/02/17 01:44:07;;;;;;;17.47;11.57;;;;;;;5.46;100.00;101176.22;5018286;28;20203;-73
2023/02/17 01:46:37;;;;;;;20.47;11.37;;;;;;;5.45;100.00;101171.94;5037772;28;20203;-74
2023/02/17 01:49:13;;;;;;;20.63;12.43;;;;;;;5.48;100.00;101168.47;5020876;28;20231;-74
2023/02/17 01:51:40;;;;;;;19.17;11.53;;;;;;;5.47;100.00;101161.56;5034307;28;20458;-73
2023/02/17 01:54:15;;;;;;;21.60;11.27;;;;;;;5.54;100.00;101144.34;5019410;28;20309;-74
2023/02/17 01:56:47;;;;;;;17.07;10.43;;;;;;;5.53;100.00;101140.91;5036493;28;20700;-75
2023/02/17 01:59:17;;;;;;;20.47;11.10;;;;;;;5.52;100.00;101141.75;5020349;28;20616;-74
2023/02/17 02:01:45;;;;;;;19.33;11.20;;;;;;;5.48;100.00;101135.72;5023962;28;20700;-74
2023/02/17 02:04:14;;;;;;;17.03;10.83;;;;;;;5.48;100.00;101129.69;5023044;28;20195;-75
2023/02/17 02:06:43;;;;;;;21.77;11.57;;;;;;;5.55;100.00;101133.16;5035081;28;20367;-73
2023/02/17 02:09:14;;;;;;;18.93;11.47;;;;;;;5.55;100.00;101125.41;5025744;28;20202;-75
2023/02/17 02:11:42;;;;;;;17.73;10.80;;;;;;;5.59;100.00;101132.28;5040729;28;20211;-74
2023/02/17 02:14:10;;;;;;;18.40;11.20;;;;;;;5.55;100.00;101118.50;5025314;28;20203;-73
2023/02/17 02:16:43;;;;;;;19.87;10.83;;;;;;;5.53;100.00;101115.03;5020810;28;20811;-74
2023/02/17 02:19:33;;;;;;;17.80;11.17;;;;;;;5.47;100.00;101115.91;5022763;28;20327;-74
2023/02/17 02:22:38;;;;;;;16.67;10.90;;;;;;;5.44;100.00;101117.63;5022383;28;20255;-75
2023/02/17 02:25:21;;;;;;;19.03;11.23;;;;;;;5.38;100.00;101117.56;5002631;28;20298;-74
2023/02/17 02:27:59;;;;;;;18.63;10.87;;;;;;;5.30;100.00;101102.91;5020755;28;20222;-73
2023/02/17 02:30:53;;;;;;;16.10;10.27;;;;;;;5.30;100.00;101100.31;5024234;28;20211;-75
2023/02/17 02:33:33;;;;;;;18.43;10.70;;;;;;;5.29;100.00;101095.13;5022402;28;20227;-75
2023/02/17 02:36:07;;;;;;;19.47;10.93;;;;;;;5.29;100.00;101092.56;5037558;28;20660;-75
2023/02/17 02:38:40;;;;;;;19.27;10.97;;;;;;;5.38;100.00;101094.31;5023781;28;20668;-75
2023/02/17 02:41:11;;;;;;;18.87;10.97;;;;;;;5.39;100.00;101086.56;5020877;28;20575;-74
2023/02/17 02:43:38;;;;;;;17.10;11.30;;;;;;;5.40;100.00;101079.66;5041516;28;20211;-75
2023/02/17 02:46:05;;;;;;;17.37;11.37;;;;;;;5.39;100.00;101075.34;5041314;28;21215;-74
2023/02/17 02:48:33;;;;;;;17.10;10.23;;;;;;;5.41;100.00;101078.81;5039769;28;20191;-73
2023/02/17 02:51:22;;;;;;;20.27;10.43;;;;;;;5.45;100.00;101071.06;5025588;28;20219;-74
2023/02/17 02:53:58;;;;;;;18.10;11.17;;;;;;;5.46;100.00;101077.94;5021684;28;20334;-73
2023/02/17 02:56:42;;;;;;;18.97;10.83;;;;;;;5.43;100.00;101070.16;5028073;28;20435;-75
2023/02/17 02:59:22;;;;;;;18.13;11.27;;;;;;;5.43;100.00;101070.16;5042439;28;20227;-73
2023/02/17 03:02:00;;;;;;;21.07;11.07;;;;;;;5.43;100.00;101062.41;5025626;28;20223;-74
2023/02/17 03:04:35;;;;;;;18.07;10.73;;;;;;;5.44;100.00;101063.31;5027611;28;20214;-74
2023/02/17 03:07:06;;;;;;;17.43;11.17;;;;;;;5.42;100.00;101054.69;5022479;28;20222;-75
2023/02/17 03:09:34;;;;;;;17.13;10.73;;;;;;;5.42;100.00;101049.50;5022109;28;20565;-75
2023/02/17 03:12:00;;;;;;;19.70;11.13;;;;;;;5.40;100.00;101046.91;5021562;28;20251;-73
2023/02/17 03:14:36;;;;;;;18.67;11.90;;;;;;;5.42;100.00;101040.03;5040763;28;20204;-75
2023/02/17 03:17:02;;;;;;;17.77;11.63;;;;;;;5.44;100.00;101035.72;5023204;28;20215;-74
2023/02/17 03:19:30;;;;;;;20.50;12.37;;;;;;;5.44;100.00;101030.53;5022020;28;20212;-74
2023/02/17 03:22:02;;;;;;;18.43;10.70;;;;;;;5.42;100.00;101024.50;5040016;28;20267;-74
2023/02/17 03:24:29;;;;;;;18.70;10.97;;;;;;;5.40;100.00;101023.66;5019195;28;20207;-74
2023/02/17 03:26:55;;;;;;;18.10;10.57;;;;;;;5.41;100.00;101024.50;5023671;28;20307;-75
2023/02/17 03:29:21;;;;;;;22.03;12.40;;;;;;;5.43;100.00;101017.59;5019600;28;20196;-74
2023/02/17 03:31:48;;;;;;;20.03;10.87;;;;;;;5.48;100.00;101019.31;5019628;28;20297;-75
2023/02/17 03:34:14;;;;;;;19.73;10.83;;;;;;;5.51;100.00;101008.13;5023858;28;20649;-75
2023/02/17 03:36:42;;;;;;;21.90;11.13;;;;;;;5.54;100.00;101005.56;5024983;28;20204;-74
2023/02/17 03:39:08;;;;;;;19.43;11.37;;;;;;;5.57;100.00;101002.09;5040981;28;20203;-75
2023/02/17 03:41:35;;;;;;;18.23;10.53;;;;;;;5.63;100.00;100995.19;5024489;28;20227;-74
2023/02/17 03:44:01;;;;;;;20.10;11.80;;;;;;;5.65;100.00;101006.41;5041395;28;20199;-74
2023/02/17 03:46:27;;;;;;;18.77;11.70;;;;;;;5.70;100.00;101009.00;5044127;28;20214;-75
2023/02/17 03:48:54;;;;;;;19.13;10.70;;;;;;;5.75;100.00;101015.06;5022288;28;20204;-74
2023/02/17 03:51:23;;;;;;;18.03;10.80;;;;;;;5.77;100.00;101013.31;5022914;28;20199;-75
2023/02/17 03:53:51;;;;;;;18.63;11.07;;;;;;;5.80;100.00;101009.84;5039011;28;20206;-75
2023/02/17 03:56:18;;;;;;;20.00;11.43;;;;;;;5.81;100.00;100998.66;5024683;28;20199;-74
2023/02/17 03:58:45;;;;;;;18.43;10.97;;;;;;;5.87;100.00;100999.53;5023812;28;20229;-73
2023/02/17 04:01:12;;;;;;;20.17;11.37;;;;;;;5.92;100.00;100996.06;5023325;28;20199;-74
2023/02/17 04:03:39;;;;;;;19.20;12.27;;;;;;;5.92;100.00;100996.91;5042681;28;20683;-73
2023/02/17 04:06:07;;;;;;;17.37;11.23;;;;;;;5.94;100.00;101000.34;5039412;28;20378;-74
2023/02/17 04:08:33;;;;;;;17.00;11.07;;;;;;;5.96;100.00;100997.78;5044503;28;20219;-74
2023/02/17 04:11:03;;;;;;;21.30;11.67;;;;;;;5.98;100.00;100996.06;5036735;28;20215;-74
2023/02/17 04:13:30;;;;;;;17.23;10.30;;;;;;;5.99;100.00;100997.81;5042317;28;20215;-74
2023/02/17 04:15:57;;;;;;;18.80;11.40;;;;;;;5.98;100.00;101007.31;5026652;28;20571;-75
2023/02/17 04:18:23;;;;;;;21.07;11.70;;;;;;;6.01;100.00;101002.09;5039447;28;20985;-74
2023/02/17 04:20:51;;;;;;;21.67;11.93;;;;;;;6.00;100.00;100987.44;5037241;28;20544;-75
2023/02/17 04:23:18;;;;;;;17.13;10.43;;;;;;;5.99;100.00;100993.47;5016616;28;20289;-73
2023/02/17 04:25:48;;;;;;;19.53;11.33;;;;;;;5.97;100.00;100981.41;5017235;28;20759;-73
2023/02/17 04:28:17;;;;;;;19.83;11.80;;;;;;;5.95;100.00;100975.34;5024861;28;20258;-75
2023/02/17 04:30:44;;;;;;;18.63;10.77;;;;;;;5.93;100.00;100975.34;5039690;28;20208;-74
2023/02/17 04:33:11;;;;;;;17.87;10.63;;;;;;;5.91;100.00;100984.84;5022655;28;20234;-74
2023/02/17 04:35:38;;;;;;;17.97;10.77;;;;;;;5.89;100.00;100991.72;5042878;28;20481;-75
2023/02/17 04:38:04;;;;;;;18.00;11.63;;;;;;;5.91;100.00;100981.38;5022670;28;20227;-74
2023/02/17 04:40:31;;;;;;;19.10;11.03;;;;;;;5.87;100.00;100976.22;5043394;28;20279;-74
2023/02/17 04:42:57;;;;;;;18.73;10.80;;;;;;;5.86;100.00;100971.91;5020016;28;20715;-75
2023/02/17 04:45:25;;;;;;;16.77;11.03;;;;;;;5.85;100.00;100965.00;5034907;28;20216;-75
2023/02/17 04:47:51;;;;;;;19.37;12.37;;;;;;;5.83;100.00;100963.28;5019900;28;20215;-74
2023/02/17 04:50:18;;;;;;;19.53;11.83;;;;;;;5.80;100.00;100960.69;5036089;28;20191;-74
2023/02/17 04:52:45;;;;;;;18.67;11.07;;;;;;;5.77;100.00;100963.28;5022881;28;20622;-73
2023/02/17 04:55:11;;;;;;;20.10;11.73;;;;;;;5.70;100.00;100962.44;5039365;28;20226;-74
2023/02/17 04:57:37;;;;;;;21.70;12.43;;;;;;;5.67;100.00;100950.34;5017910;28;20762;-75
2023/02/17 05:00:08;;;;;;;17.00;11.73;;;;;;;5.65;100.00;100949.50;5039465;28;20207;-74
2023/02/17 05:02:36;;;;;;;18.83;11.13;;;;;;;5.68;100.00;100948.63;5018512;28;20251;-74
2023/02/17 05:05:02;;;;;;;19.37;11.97;;;;;;;5.67;100.00;100939.16;5040183;28;20871;-75
2023/02/17 05:07:29;;;;;;;18.33;12.33;;;;;;;5.66;100.00;100934.81;5037551;28;20278;-74
2023/02/17 05:09:55;;;;;;;17.60;11.53;;;;;;;5.64;100.00;100940.00;5039250;28;20207;-74
2023/02/17 05:12:22;;;;;;;20.57;12.47;;;;;;;5.65;100.00;100938.28;5021189;28;20219;-75
2023/02/17 05:14:48;;;;;;;20.13;11.80;;;;;;;5.67;100.00;100947.75;5028442;28;20596;-74
2023/02/17 05:17:14;;;;;;;19.10;11.53;;;;;;;5.71;100.00;100950.34;5037111;28;20203;-73
2023/02/17 05:19:44;;;;;;;19.10;11.10;;;;;;;5.73;100.00;100956.38;5039911;28;20203;-74
2023/02/17 05:22:10;;;;;;;20.97;11.77;;;;;;;5.70;100.00;100944.31;5019497;28;20229;-74
2023/02/17 05:24:36;;;;;;;19.63;11.43;;;;;;;5.73;100.00;100948.63;5038449;28;20207;-75
2023/02/17 05:27:03;;;;;;;17.87;11.43;;;;;;;5.68;100.00;100941.75;5020965;28;20210;-75
2023/02/17 05:29:29;;;;;;;17.07;10.47;;;;;;;5.71;100.00;100945.19;5037265;28;20673;-74
2023/02/17 05:31:55;;;;;;;16.83;10.20;;;;;;;5.69;100.00;100942.59;5038318;28;20227;-74
2023/02/17 05:34:22;;;;;;;16.67;10.90;;;;;;;5.67;100.00;100939.16;5036759;28;20567;-73
2023/02/17 05:36:50;;;;;;;21.97;12.87;;;;;;;5.62;100.00;100939.13;5036562;28;20208;-74
2023/02/17 05:39:16;;;;;;;18.73;11.47;;;;;;;5.60;100.00;100934.84;5036564;28;20219;-75
2023/02/17 05:41:45;;;;;;;17.23;10.60;;;;;;;5.59;100.00;100938.28;5037174;28;20255;-73
2023/02/17 05:44:12;;;;;;;19.67;11.67;;;;;;;5.58;100.00;100944.34;5040005;28;20598;-74
2023/02/17 05:46:38;;;;;;;20.27;11.83;;;;;;;5.56;100.00;100939.16;5036796;28;20192;-74
2023/02/17 05:49:05;;;;;;;17.27;11.30;;;;;;;5.55;100.00;100928.81;5037461;28;20191;-75
2023/02/17 05:51:31;;;;;;;18.63;11.60;;;;;;;5.55;100.00;100921.06;5037932;28;20231;-74
2023/02/17 05:53:59;;;;;;;20.10;11.93;;;;;;;5.53;100.00;100921.03;5036222;28;20212;-75
2023/02/17 05:56:25;;;;;;;21.73;11.30;;;;;;;5.50;100.00;100927.09;5033509;28;20211;-75
2023/02/17 05:58:51;;;;;;;20.03;12.50;;;;;;;5.52;100.00;100921.03;5037453;28;20218;-74
2023/02/17 06:01:18;;;;;;;20.97;11.93;;;;;;;5.53;100.00;100920.19;5013957;28;20208;-75
2023/02/17 06:03:44;;;;;;;19.30;11.67;;;;;;;5.52;100.00;100919.31;5015734;28;20206;-74
2023/02/17 06:06:11;;;;;;;18.97;11.50;;;;;;;5.53;100.00;100915.88;5037804;28;20552;-74
2023/02/17 06:08:38;;;;;;;17.90;11.47;;;;;;;5.54;100.00;100914.16;5038392;28;20210;-74
2023/02/17 06:11:06;;;;;;;20.07;11.93;;;;;;;5.54;100.00;100906.38;5016629;28;20206;-75
2023/02/17 06:13:33;;;;;;;23.80;12.23;;;;;;;5.53;100.00;100894.34;5034970;28;20674;-75
2023/02/17 06:15:59;;;;;;;19.23;10.60;;;;;;;5.53;100.00;100889.16;5038383;28;20195;-74
2023/02/17 06:18:26;;;;;;;21.60;12.50;;;;;;;5.58;100.00;100897.78;5034142;28;20219;-74
2023/02/17 06:20:54;;;;;;;19.77;12.57;;;;;;;5.56;100.00;100902.94;5036860;28;20203;-73
2023/02/17 06:23:21;;;;;;;21.07;11.80;;;;;;;5.59;100.00;100902.06;5035300;28;20227;-75
2023/02/17 06:25:49;;;;;;;19.87;11.87;;;;;;;5.59;100.00;100896.91;5017468;28;20210;-74
2023/02/17 06:28:17;;;;;;;16.63;11.97;;;;;;;5.60;100.00;100899.47;5016438;28;20203;-75
2023/02/17 06:30:43;;;;;;;20.10;12.07;;;;;;;5.60;100.00;100890.88;5037779;28;20206;-74
2023/02/17 06:33:10;;;;;;;19.90;13.20;;;;;;;5.62;100.00;100886.56;5034975;28;20231;-76
2023/02/17 06:35:36;;;;;;;19.03;11.90;;;;;;;5.64;100.00;100879.66;5037307;28;20708;-74
2023/02/17 06:38:02;;;;;;;25.13;13.80;;;;;;;5.65;100.00;100887.41;5035375;28;20599;-75
2023/02/17 06:40:29;;;;;;;21.80;11.97;;;;;;;5.68;100.00;100892.59;5040880;28;20676;-74
2023/02/17 06:42:56;;;;;;;18.93;11.93;;;;;;;5.71;100.00;100898.59;5038647;28;20712;-75
2023/02/17 06:45:24;;;;;;;20.40;12.87;;;;;;;5.73;100.00;100899.47;5024481;28;20242;-74
2023/02/17 06:47:50;;;;;;;22.07;12.83;;;;;;;5.72;100.00;100903.78;5040885;28;20206;-75
2023/02/17 06:50:17;;;;;;;18.17;11.27;;;;;;;5.75;100.00;100892.56;5025218;28;20200;-74
2023/02/17 06:52:43;;;;;;;20.43;12.17;;;;;;;5.77;100.00;100888.22;5026109;28;20219;-74
2023/02/17 06:55:12;;;;;;;19.53;12.13;;;;;;;5.77;100.00;100893.41;5046260;28;20192;-77
2023/02/17 06:57:39;;;;;;;19.70;12.30;;;;;;;5.76;100.00;100884.78;5041312;28;20210;-77
2023/02/17 07:00:06;;;;;;;18.93;11.70;;;;;;;5.78;100.00;100889.97;5043607;28;20216;-74
2023/02/17 07:02:38;;;;;;;21.23;12.03;;;;;;;5.78;100.00;100885.66;5037074;28;20216;-74
2023/02/17 07:05:05;;;;;;;19.03;12.17;;;;;;;5.81;100.00;100890.81;5041278;28;20612;-77
2023/02/17 07:07:32;;;;;;;20.70;11.83;;;;;;;5.82;100.00;100883.91;5040390;28;20792;-74
2023/02/17 07:09:58;;;;;;;20.27;11.87;;;;;;;5.83;100.00;100896.84;5027088;28;20199;-74
2023/02/17 07:12:27;;;;;;;17.47;11.70;;;;;;;5.84;100.00;100900.28;5045579;28;20615;-74
2023/02/17 07:14:53;;;;;;;18.87;10.97;;;;;;;5.87;100.00;100896.00;5015826;28;20600;-76
2023/02/17 07:17:20;;;;;;;22.10;11.90;;;;;;;5.89;100.00;100893.38;5039688;28;20202;-75
2023/02/17 07:19:48;;;;;;;20.57;11.53;;;;;;;5.91;100.00;100891.69;5038888;28;20310;-74
2023/02/17 07:22:14;;;;;;;18.93;12.00;;;;;;;5.93;100.00;100895.13;5040205;28;20231;-74
2023/02/17 07:24:42;;;;;;;17.73;11.67;;;;;;;5.93;100.00;100889.94;5042935;28;20200;-74
2023/02/17 07:27:09;;;;;;;17.77;10.83;;;;;;;5.96;100.00;100886.50;5022025;28;20209;-74
2023/02/17 07:29:35;;;;;;;18.27;11.30;;;;;;;6.00;100.00;100883.91;5042192;28;20255;-75
2023/02/17 07:32:02;;;;;;;15.10;10.40;;;;;;;6.05;100.00;100886.47;5043149;28;20234;-76
2023/02/17 07:34:28;;;;;;;18.43;11.00;;;;;;;6.09;100.00;100877.84;5020563;28;20295;-74
2023/02/17 07:36:56;;;;;;;17.30;11.30;;;;;;;6.11;100.00;100883.00;5043764;28;20201;-74
2023/02/17 07:39:22;;;;;;;18.10;10.87;;;;;;;6.13;100.00;100879.53;5025038;28;20218;-75
2023/02/17 07:41:53;;;;;;;16.60;10.70;;;;;;;6.16;100.00;100891.63;5040538;28;20252;-74
2023/02/17 07:44:19;;;;;;;17.37;10.63;;;;;;;6.19;100.00;100878.66;5025471;28;20208;-74
2023/02/17 07:46:46;;;;;;;18.40;10.90;;;;;;;6.20;100.00;100881.25;5025055;28;20205;-74
2023/02/17 07:49:13;;;;;;;17.83;10.13;;;;;;;6.23;100.00;100883.81;5040366;28;20186;-76
2023/02/17 07:51:40;;;;;;;17.63;11.23;;;;;;;6.23;100.00;100878.63;5041644;28;20613;-74
2023/02/17 07:54:08;;;;;;;16.30;10.00;;;;;;;6.29;100.00;100882.94;5039517;28;20523;-75
2023/02/17 07:56:34;;;;;;;15.03;9.97;;;;;;;6.29;100.00;100874.31;5021515;28;20700;-74
2023/02/17 07:59:00;;;;;;;14.00;9.07;;;;;;;6.29;100.00;100876.91;5036674;28;20551;-74
2023/02/17 08:01:27;;;;;;;14.53;9.47;;;;;;;6.32;100.00;100876.88;5041010;28;20227;-76
2023/02/17 08:03:54;;;;;;;15.80;9.53;;;;;;;6.36;100.00;100870.81;5027081;28;20678;-74
2023/02/17 08:06:22;;;;;;;18.47;9.87;;;;;;;6.41;100.00;100869.06;5035355;28;20194;-74
2023/02/17 08:14:28;;;;;;;13.77;9.23;;;;;;;6.52;100.00;100859.50;5036111;28;20563;-74
2023/02/17 08:16:55;;;;;;;12.87;8.50;;;;;;;6.55;100.00;100851.72;5022846;28;20208;-73
2023/02/17 08:19:22;;;;;;;14.77;9.87;;;;;;;6.60;100.00;100860.31;5037037;28;20844;-75
2023/02/17 08:21:49;;;;;;;12.43;8.53;;;;;;;6.66;100.00;100850.78;5044540;28;20595;-74
2023/02/17 08:24:16;;;;;;;13.33;8.60;;;;;;;6.74;100.00;100849.03;5041013;28;20201;-74
2023/02/17 08:26:49;;;;;;;16.03;9.13;;;;;;;6.78;100.00;100848.13;5039088;28;20195;-75
2023/02/17 08:29:19;;;;;;;13.43;8.80;;;;;;;6.83;100.00;100839.44;5042167;28;20216;-74
2023/02/17 08:31:45;;;;;;;11.77;8.63;;;;;;;6.89;100.00;100835.09;5040171;28;20252;-75
2023/02/17 08:34:13;;;;;;;14.43;8.70;;;;;;;6.94;100.00;100839.34;5038325;28;20201;-74
2023/02/17 08:36:40;;;;;;;13.03;8.97;;;;;;;6.98;100.00;100830.69;5019898;28;20205;-74
2023/02/17 08:39:11;;;;;;;12.40;8.60;;;;;;;7.04;100.00;100834.13;5041732;28;20601;-74
2023/02/17 08:41:38;;;;;;;12.53;8.43;;;;;;;7.06;100.00;100841.00;5041515;28;20224;-74
2023/02/17 08:44:09;;;;;;;14.37;8.50;;;;;;;7.10;100.00;100840.09;5038785;28;20232;-76
2023/02/17 08:46:36;;;;;;;13.00;8.33;;;;;;;7.12;100.00;100832.28;5039036;28;20495;-74
2023/02/17 08:49:04;;;;;;;11.27;7.90;;;;;;;7.16;100.00;100837.47;5019259;28;20220;-75
2023/02/17 08:51:30;;;;;;;12.50;7.97;;;;;;;7.22;100.00;100836.53;5022075;28;20316;-74
2023/02/17 08:53:59;;;;;;;10.80;7.43;;;;;;;7.29;100.00;100829.56;5040762;28;20196;-75
2023/02/17 08:56:27;;;;;;;10.80;7.93;;;;;;;7.33;100.00;100832.09;5040349;28;20202;-74
2023/02/17 08:58:53;;;;;;;11.63;7.70;;;;;;;7.36;100.00;100834.66;5021260;28;20610;-74
2023/02/17 09:01:22;;;;;;;10.80;7.83;;;;;;;7.44;100.00;100838.91;5041750;28;20290;-74
2023/02/17 09:03:50;;;;;;;10.30;6.87;;;;;;;7.48;100.00;100836.28;5021348;28;20311;-73
2023/02/17 09:06:17;;;;;;;8.67;6.77;;;;;;;7.48;100.00;100832.84;5043167;28;20227;-74
2023/02/17 09:08:44;;;;;;;9.10;6.93;;;;;;;7.51;100.00;100837.97;5041456;28;20195;-74
2023/02/17 09:11:14;;;;;;;9.90;5.93;;;;;;;7.50;100.00;100834.53;5039235;28;20194;-74
2023/02/17 09:13:40;;;;;;;12.10;6.20;;;;;;;7.54;100.00;100833.63;5042218;28;20197;-74
2023/02/17 09:16:08;;;;;;;10.07;6.77;;;;;;;7.58;100.00;100826.66;5043575;28;20579;-74
2023/02/17 09:18:35;;;;;;;9.37;6.40;;;;;;;7.62;100.00;100828.38;5017482;28;20214;-74
2023/02/17 09:21:06;;;;;;;9.53;6.60;;;;;;;7.70;100.00;100833.47;5037722;28;20205;-74
2023/02/17 09:23:33;;;;;;;8.97;6.33;;;;;;;7.73;100.00;100823.91;5039534;28;20707;-74
2023/02/17 09:26:05;;;;;;;8.10;6.10;;;;;;;7.76;100.00;100830.81;5038835;28;20709;-74
2023/02/17 09:28:32;;;;;;;10.93;6.43;;;;;;;7.80;100.00;100824.72;5020838;28;20210;-73
2023/02/17 09:30:58;;;;;;;9.17;6.43;;;;;;;7.82;100.00;100830.72;5044022;28;20738;-74
2023/02/17 09:33:24;;;;;;;9.50;6.17;;;;;;;7.86;100.00;100816.88;5024112;28;20288;-74
2023/02/17 09:35:52;;;;;;;8.07;5.60;;;;;;;7.89;100.00;100824.59;5036879;28;20199;-74
2023/02/17 09:38:19;;;;;;;9.97;6.30;;;;;;;7.92;100.00;100813.31;5019405;28;20295;-74
2023/02/17 09:40:47;;;;;;;7.37;5.80;;;;;;;7.94;100.00;100812.41;5022338;28;20218;-74
2023/02/17 09:43:15;;;;;;;8.17;5.70;;;;;;;7.97;100.00;100806.34;5020133;28;20219;-74
2023/02/17 09:45:46;;;;;;;6.83;5.50;;;;;;;7.99;100.00;100806.31;5037809;28;20210;-74
2023/02/17 09:48:16;;;;;;;6.67;5.10;;;;;;;8.02;100.00;100801.06;5017588;28;20218;-75
2023/02/17 09:50:48;;;;;;;10.20;6.30;;;;;;;8.06;100.00;100798.44;5038563;28;20475;-77
2023/02/17 09:53:25;;;;;;;7.30;5.30;;;;;;;8.06;100.00;100795.81;5020879;28;20223;-76
2023/02/17 09:55:56;;;;;;;7.73;5.43;;;;;;;8.11;100.00;100793.19;5039270;28;20554;-75
2023/02/17 09:58:28;;;;;;;7.97;6.00;;;;;;;8.15;100.00;100781.88;5037296;28;20200;-76
2023/02/17 10:00:57;;;;;;;7.50;5.37;;;;;;;8.17;100.00;100771.47;5044348;28;20333;-75
2023/02/17 10:03:29;;;;;;;7.27;5.50;;;;;;;8.20;100.00;100772.28;5035925;28;20318;-73
2023/02/17 10:06:06;;;;;;;9.03;5.63;;;;;;;8.21;100.00;100773.97;5042031;28;20249;-76
2023/02/17 10:08:40;;;;;;;7.80;6.40;;;;;;;8.23;100.00;100771.34;5023673;28;20208;-73
2023/02/17 10:11:14;;;;;;;9.37;6.03;;;;;;;8.25;100.00;100762.69;5036770;28;20801;-74
2023/02/17 10:13:45;;;;;;;7.57;5.40;;;;;;;8.27;100.00;100758.31;5014157;28;20261;-76
2023/02/17 10:16:19;;;;;;;7.93;5.77;;;;;;;8.31;100.00;100756.53;5020516;28;20602;-74
2023/02/17 10:18:54;;;;;;;10.83;6.33;;;;;;;8.31;100.00;100752.19;5024061;28;20210;-75
2023/02/17 10:21:25;;;;;;;8.93;5.73;;;;;;;8.34;100.00;100744.34;5041063;28;20199;-74
2023/02/17 10:23:53;;;;;;;7.77;6.43;;;;;;;8.42;100.00;100741.66;5041959;28;20192;-74
2023/02/17 10:26:26;;;;;;;10.23;7.67;;;;;;;8.46;100.00;100721.69;5044458;28;20199;-74
2023/02/17 10:28:57;;;;;;;10.67;7.70;;;;;;;8.49;100.00;100725.09;5043183;28;20283;-75
2023/02/17 10:31:37;;;;;;;13.83;8.50;;;;;;;8.50;100.00;100720.78;5043988;28;20749;-74
2023/02/17 10:34:08;;;;;;;7.50;5.90;;;;;;;8.53;100.00;100715.50;5041718;28;20210;-73
2023/02/17 10:36:46;;;;;;;8.97;6.17;;;;;;;8.53;100.00;100716.38;5036209;28;20698;-75
2023/02/17 10:39:22;;;;;;;8.90;5.80;;;;;;;8.60;100.00;100696.34;5021604;28;20253;-74
2023/02/17 10:41:51;;;;;;;6.73;5.70;;;;;;;8.60;100.00;100695.47;5045964;28;20324;-75
2023/02/17 10:44:21;;;;;;;7.97;6.03;;;;;;;8.64;100.00;100689.34;5025826;28;20286;-77
2023/02/17 10:46:48;;;;;;;8.90;6.30;;;;;;;8.60;100.00;100685.06;5044078;28;20676;-75
2023/02/17 10:49:21;;;;;;;8.70;6.27;;;;;;;8.60;100.00;100687.69;5041143;28;20207;-74
2023/02/17 10:51:47;;;;;;;8.17;6.37;;;;;;;8.61;100.00;100673.81;5040060;28;20579;-74
2023/02/17 10:54:25;;;;;;;9.10;6.53;;;;;;;8.61;100.00;100671.22;5043523;28;20204;-76
2023/02/17 10:56:55;;;;;;;7.67;5.90;;;;;;;8.59;100.00;100673.84;5038766;28;20203;-73
2023/02/17 10:59:27;;;;;;;8.53;6.43;;;;;;;8.59;100.00;100671.22;5026691;28;20303;-74
2023/02/17 11:01:58;;;;;;;8.23;5.97;;;;;;;8.62;100.00;100670.31;5042786;28;20689;-76
2023/02/17 11:04:25;;;;;;;8.90;5.60;;;;;;;8.56;100.00;100666.06;5045432;28;20618;-74
2023/02/17 11:06:54;;;;;;;8.93;6.00;;;;;;;8.56;100.00;100655.69;5023770;28;20203;-75
2023/02/17 11:09:27;;;;;;;10.07;5.70;;;;;;;8.50;100.00;100653.22;5026274;28;20193;-75
2023/02/17 11:11:59;;;;;;;8.17;5.90;;;;;;;8.46;100.00;100642.00;5026069;28;20223;-74
2023/02/17 11:14:28;;;;;;;7.67;5.23;;;;;;;8.34;100.00;100639.59;5045960;28;20199;-75
2023/02/17 11:16:58;;;;;;;6.60;5.17;;;;;;;8.25;100.00;100627.59;5025585;28;20208;-74
2023/02/17 11:19:27;;;;;;;6.57;5.07;;;;;;;8.19;100.00;100629.44;5023184;28;20253;-75
2023/02/17 11:21:56;;;;;;;8.77;5.50;;;;;;;8.14;100.00;100622.59;5020214;28;20231;-77
2023/02/17 11:24:24;;;;;;;5.50;4.80;;;;;;;8.14;100.00;100607.00;5040426;28;20199;-74
2023/02/17 11:26:57;;;;;;;7.50;5.67;;;;;;;8.17;100.00;100606.09;5025630;28;20204;-74